createdAt,value
2019-04-19T00:00:17.596Z,14.96
2019-04-19T00:01:15.417Z,14.97
2019-04-19T00:02:15.305Z,14.96
2019-04-19T00:03:20.316Z,14.97
2019-04-19T00:04:16.883Z,14.88
2019-04-19T00:05:13.229Z,14.94
2019-04-19T00:06:18.993Z,14.91
2019-04-19T00:07:19.609Z,14.78
2019-04-19T00:08:28.807Z,14.81
2019-04-19T00:09:28.921Z,14.91
2019-04-19T00:10:24.931Z,14.88
2019-04-19T00:11:25.796Z,14.84
2019-04-19T00:12:25.321Z,14.86
2019-04-19T00:13:13.564Z,14.91
2019-04-19T00:14:13.144Z,14.91
2019-04-19T00:15:13.923Z,14.89
2019-04-19T00:16:13.183Z,14.91
2019-04-19T00:17:19.832Z,14.81
2019-04-19T00:18:16.414Z,14.88
2019-04-19T00:19:30.614Z,14.85
2019-04-19T00:20:32.764Z,14.82
2019-04-19T00:21:30.451Z,14.84
2019-04-19T00:22:31.781Z,14.84
2019-04-19T00:23:23.921Z,14.73
2019-04-19T00:24:14.398Z,14.78
2019-04-19T00:25:13.477Z,14.79
2019-04-19T00:26:14.706Z,14.79
2019-04-19T00:27:13.991Z,14.72
2019-04-19T00:28:22.487Z,14.72
2019-04-19T00:29:22.573Z,14.72
2019-04-19T00:30:24.324Z,14.69
2019-04-19T00:31:27.709Z,14.60
2019-04-19T00:32:30.352Z,14.72
2019-04-19T00:33:25.064Z,14.66
2019-04-19T00:34:14.689Z,14.69
2019-04-19T00:35:13.720Z,14.62
2019-04-19T00:36:15.270Z,14.63
2019-04-19T00:37:14.439Z,14.60
2019-04-19T00:38:25.240Z,14.60
2019-04-19T00:39:31.503Z,14.65
2019-04-19T00:40:33.085Z,14.68
2019-04-19T00:41:28.240Z,14.68
2019-04-19T00:42:32.714Z,14.63
2019-04-19T00:43:35.964Z,14.58
2019-04-19T00:44:33.054Z,14.53
2019-04-19T00:46:29.278Z,14.51
2019-04-19T00:47:31.076Z,14.60
2019-04-19T00:48:29.792Z,14.62
2019-04-19T00:49:22.986Z,14.60
2019-04-19T00:50:23.931Z,14.59
2019-04-19T00:51:25.118Z,14.50
2019-04-19T00:52:34.240Z,14.51
2019-04-19T00:53:27.517Z,14.55
2019-04-19T00:54:22.785Z,14.50
2019-04-19T00:55:22.833Z,14.50
2019-04-19T00:56:23.510Z,14.50
2019-04-19T00:57:21.679Z,14.48
2019-04-19T00:58:20.110Z,14.50
2019-04-19T00:59:16.639Z,14.43
2019-04-19T01:00:18.753Z,14.45
2019-04-19T01:01:19.805Z,14.36
2019-04-19T01:02:17.383Z,14.32
2019-04-19T01:03:16.171Z,14.35
2019-04-19T01:04:20.440Z,14.36
2019-04-19T01:05:18.113Z,14.23
2019-04-19T01:06:18.271Z,14.26
2019-04-19T01:07:22.167Z,14.32
2019-04-19T01:08:20.789Z,14.26
2019-04-19T01:09:28.567Z,14.15
2019-04-19T01:10:26.775Z,14.28
2019-04-19T01:11:27.690Z,14.18
2019-04-19T01:12:22.652Z,14.14
2019-04-19T01:13:29.366Z,14.14
2019-04-19T01:14:29.046Z,14.15
2019-04-19T01:15:26.299Z,14.22
2019-04-19T01:16:25.631Z,14.17
2019-04-19T01:17:28.529Z,14.11
2019-04-19T01:18:25.387Z,14.17
2019-04-19T01:19:17.888Z,14.11
2019-04-19T01:20:15.642Z,14.17
2019-04-19T01:21:15.404Z,14.17
2019-04-19T01:22:21.206Z,14.05
2019-04-19T01:23:16.718Z,14.04
2019-04-19T01:24:17.994Z,14.07
2019-04-19T01:25:16.140Z,14.04
2019-04-19T01:26:15.541Z,13.95
2019-04-19T01:27:20.456Z,13.92
2019-04-19T01:28:19.579Z,13.90
2019-04-19T01:29:18.052Z,13.86
2019-04-19T01:30:17.968Z,13.86
2019-04-19T01:31:19.123Z,13.90
2019-04-19T01:32:17.076Z,13.72
2019-04-19T01:33:14.691Z,13.78
2019-04-19T01:34:18.156Z,13.77
2019-04-19T01:35:18.354Z,13.72
2019-04-19T01:36:14.715Z,13.72
2019-04-19T01:37:19.520Z,13.67
2019-04-19T01:38:15.184Z,13.63
2019-04-19T01:39:30.382Z,13.63
2019-04-19T01:40:29.347Z,13.59
2019-04-19T01:41:31.751Z,13.68
2019-04-19T01:42:35.423Z,13.67
2019-04-19T01:43:35.723Z,13.59
2019-04-19T01:44:33.278Z,13.60
2019-04-19T01:45:30.196Z,13.57
2019-04-19T01:46:35.701Z,13.59
2019-04-19T01:47:37.482Z,13.53
2019-04-19T01:48:33.863Z,13.57
2019-04-19T01:49:25.891Z,13.56
2019-04-19T01:50:31.656Z,13.59
2019-04-19T01:51:36.757Z,13.53
2019-04-19T01:52:40.944Z,13.47
2019-04-19T01:53:33.118Z,13.49
2019-04-19T01:54:29.872Z,13.41
2019-04-19T01:55:23.626Z,13.50
2019-04-19T01:56:18.107Z,13.47
2019-04-19T01:57:16.370Z,13.39
2019-04-19T01:58:18.921Z,13.42
2019-04-19T01:59:15.995Z,13.52
2019-04-19T02:00:26.126Z,13.39
2019-04-19T02:01:20.623Z,13.39
2019-04-19T02:02:18.106Z,13.35
2019-04-19T02:03:15.224Z,13.39
2019-04-19T02:04:20.747Z,13.28
2019-04-19T02:05:18.244Z,13.30
2019-04-19T02:06:17.751Z,13.30
2019-04-19T02:07:19.706Z,13.18
2019-04-19T02:08:16.414Z,13.15
2019-04-19T02:09:26.869Z,13.13
2019-04-19T02:10:34.737Z,13.22
2019-04-19T02:11:27.740Z,13.15
2019-04-19T02:12:30.397Z,13.12
2019-04-19T02:13:24.779Z,13.08
2019-04-19T02:14:22.066Z,13.08
2019-04-19T02:15:26.790Z,13.12
2019-04-19T02:16:20.051Z,13.08
2019-04-19T02:17:18.036Z,13.08
2019-04-19T02:18:21.881Z,13.03
2019-04-19T02:19:19.516Z,12.94
2019-04-19T02:20:17.041Z,12.90
2019-04-19T02:21:24.501Z,12.87
2019-04-19T02:22:22.792Z,12.95
2019-04-19T02:23:17.320Z,12.93
2019-04-19T02:24:16.915Z,12.94
2019-04-19T02:25:20.973Z,12.91
2019-04-19T02:26:19.676Z,12.85
2019-04-19T02:27:16.948Z,12.91
2019-04-19T02:28:23.025Z,12.93
2019-04-19T02:29:20.241Z,12.91
2019-04-19T02:30:26.960Z,12.95
2019-04-19T02:31:35.964Z,12.85
2019-04-19T02:32:32.440Z,12.94
2019-04-19T02:33:43.010Z,12.95
2019-04-19T02:34:43.018Z,12.94
2019-04-19T02:35:41.893Z,12.95
2019-04-19T02:36:53.852Z,12.90
2019-04-19T02:37:37.670Z,12.94
2019-04-19T02:38:52.099Z,12.94
2019-04-19T02:39:45.479Z,12.94
2019-04-19T02:40:52.857Z,12.93
2019-04-19T02:41:38.249Z,12.86
2019-04-19T02:43:54.322Z,12.87
2019-04-19T02:44:57.988Z,12.79
2019-04-19T02:45:45.457Z,12.78
2019-04-19T02:48:48.079Z,12.76
2019-04-19T02:49:57.982Z,12.70
2019-04-19T02:51:44.960Z,12.65
2019-04-19T02:52:57.029Z,12.76
2019-04-19T02:53:47.030Z,12.65
2019-04-19T02:54:58.670Z,12.61
2019-04-19T02:55:50.044Z,12.61
2019-04-19T02:56:52.192Z,12.65
2019-04-19T02:57:42.402Z,12.75
2019-04-19T02:58:42.010Z,12.80
2019-04-19T02:59:50.660Z,12.87
2019-04-19T03:00:43.673Z,12.87
2019-04-19T03:01:44.365Z,12.85
2019-04-19T03:02:47.792Z,12.87
2019-04-19T03:03:32.192Z,12.85
2019-04-19T03:04:53.332Z,12.85
2019-04-19T03:05:36.972Z,12.83
2019-04-19T03:06:29.211Z,12.87
2019-04-19T03:07:17.535Z,12.80
2019-04-19T03:08:16.597Z,12.85
2019-04-19T03:09:17.489Z,12.80
2019-04-19T03:10:18.285Z,12.80
2019-04-19T03:11:36.495Z,12.75
2019-04-19T03:12:37.900Z,12.78
2019-04-19T03:13:33.351Z,12.78
2019-04-19T03:14:31.651Z,12.78
2019-04-19T03:15:37.174Z,12.75
2019-04-19T03:16:37.107Z,12.70
2019-04-19T03:17:34.682Z,12.75
2019-04-19T03:18:46.832Z,12.68
2019-04-19T03:19:27.709Z,12.57
2019-04-19T03:20:30.117Z,12.57
2019-04-19T03:21:31.947Z,12.54
2019-04-19T03:22:28.107Z,12.62
2019-04-19T03:23:30.689Z,12.60
2019-04-19T03:24:30.195Z,12.50
2019-04-19T03:25:29.164Z,12.50
2019-04-19T03:26:33.645Z,12.57
2019-04-19T03:27:24.240Z,12.50
2019-04-19T03:28:26.142Z,12.54
2019-04-19T03:29:24.548Z,12.50
2019-04-19T03:30:37.933Z,12.55
2019-04-19T03:33:04.648Z,12.53
2019-04-19T03:33:52.866Z,12.50
2019-04-19T03:34:51.885Z,12.55
2019-04-19T03:35:40.966Z,12.36
2019-04-19T03:36:32.093Z,12.39
2019-04-19T03:37:39.965Z,12.39
2019-04-19T03:38:35.030Z,12.42
2019-04-19T03:39:37.146Z,12.40
2019-04-19T03:40:37.415Z,12.37
2019-04-19T03:41:46.756Z,12.42
2019-04-19T03:42:40.903Z,12.39
2019-04-19T03:43:35.305Z,12.39
2019-04-19T03:44:32.326Z,12.42
2019-04-19T03:45:33.537Z,12.37
2019-04-19T03:46:40.667Z,12.37
2019-04-19T03:47:37.703Z,12.27
2019-04-19T03:48:42.386Z,12.28
2019-04-19T03:50:34.096Z,12.25
2019-04-19T03:51:40.619Z,12.21
2019-04-19T03:52:36.996Z,12.20
2019-04-19T03:53:46.294Z,12.15
2019-04-19T03:54:32.706Z,12.18
2019-04-19T03:55:39.408Z,12.13
2019-04-19T03:56:36.222Z,12.10
2019-04-19T03:57:31.341Z,12.20
2019-04-19T03:58:21.495Z,12.21
2019-04-19T03:59:18.326Z,12.18
2019-04-19T04:00:17.488Z,12.12
2019-04-19T04:01:17.399Z,12.17
2019-04-19T04:02:24.551Z,12.15
2019-04-19T04:03:24.292Z,12.22
2019-04-19T04:04:22.252Z,12.18
2019-04-19T04:05:19.510Z,12.17
2019-04-19T04:06:22.014Z,12.15
2019-04-19T04:07:22.780Z,12.13
2019-04-19T04:08:21.124Z,12.17
2019-04-19T04:09:18.284Z,12.17
2019-04-19T04:10:23.950Z,12.12
2019-04-19T04:11:22.490Z,12.12
2019-04-19T04:12:32.210Z,12.18
2019-04-19T04:13:30.701Z,12.18
2019-04-19T04:14:26.996Z,12.15
2019-04-19T04:15:36.468Z,12.04
2019-04-19T04:16:28.040Z,12.10
2019-04-19T04:17:18.568Z,12.07
2019-04-19T04:18:17.739Z,12.17
2019-04-19T04:19:18.612Z,12.09
2019-04-19T04:20:17.832Z,12.13
2019-04-19T04:21:22.483Z,12.10
2019-04-19T04:22:24.869Z,12.03
2019-04-19T04:23:25.413Z,12.02
2019-04-19T04:24:24.872Z,12.09
2019-04-19T04:25:22.604Z,12.10
2019-04-19T04:26:27.772Z,12.12
2019-04-19T04:27:31.648Z,12.10
2019-04-19T04:28:35.248Z,12.02
2019-04-19T04:29:27.393Z,12.09
2019-04-19T04:30:27.637Z,12.12
2019-04-19T04:31:26.322Z,12.09
2019-04-19T04:32:34.115Z,12.09
2019-04-19T04:33:32.706Z,12.00
2019-04-19T04:34:33.251Z,12.04
2019-04-19T04:35:30.610Z,12.02
2019-04-19T04:36:36.478Z,12.09
2019-04-19T04:37:35.690Z,12.02
2019-04-19T04:38:25.710Z,12.13
2019-04-19T04:39:18.083Z,12.04
2019-04-19T04:40:18.824Z,11.91
2019-04-19T04:41:24.450Z,11.91
2019-04-19T04:42:26.854Z,11.94
2019-04-19T04:43:33.436Z,11.94
2019-04-19T04:44:36.349Z,11.95
2019-04-19T04:45:35.489Z,11.97
2019-04-19T04:46:38.897Z,11.97
2019-04-19T04:47:37.077Z,11.97
2019-04-19T04:48:38.947Z,11.97
2019-04-19T04:49:43.364Z,11.94
2019-04-19T04:50:48.284Z,11.99
2019-04-19T04:51:36.328Z,11.86
2019-04-19T04:52:23.845Z,11.90
2019-04-19T04:53:19.362Z,11.90
2019-04-19T04:54:18.611Z,12.02
2019-04-19T04:55:18.370Z,12.04
2019-04-19T04:56:19.424Z,12.09
2019-04-19T04:57:28.525Z,12.06
2019-04-19T04:58:25.133Z,12.06
2019-04-19T04:59:22.263Z,12.09
2019-04-19T05:00:22.250Z,12.10
2019-04-19T05:01:32.397Z,12.15
2019-04-19T05:02:35.402Z,12.02
2019-04-19T05:03:40.143Z,12.04
2019-04-19T05:04:29.481Z,12.02
2019-04-19T05:05:34.767Z,12.04
2019-04-19T05:06:35.322Z,12.03
2019-04-19T05:07:45.645Z,12.09
2019-04-19T05:08:36.237Z,12.12
2019-04-19T05:09:40.902Z,12.06
2019-04-19T05:10:31.703Z,12.09
2019-04-19T05:11:35.113Z,12.13
2019-04-19T05:12:54.769Z,12.13
2019-04-19T05:13:39.156Z,12.18
2019-04-19T05:14:36.235Z,12.13
2019-04-19T05:15:39.976Z,12.17
2019-04-19T05:17:47.317Z,12.22
2019-04-19T05:18:36.457Z,12.25
2019-04-19T05:19:40.531Z,12.21
2019-04-19T05:20:35.654Z,12.25
2019-04-19T05:21:37.360Z,12.31
2019-04-19T05:22:32.644Z,12.36
2019-04-19T05:23:34.191Z,12.29
2019-04-19T05:24:49.411Z,12.37
2019-04-19T05:25:41.656Z,12.53
2019-04-19T05:26:45.022Z,12.46
2019-04-19T05:27:40.246Z,12.57
2019-04-19T05:28:37.524Z,12.50
2019-04-19T05:29:29.641Z,12.61
2019-04-19T05:30:19.673Z,12.65
2019-04-19T05:31:29.026Z,12.50
2019-04-19T05:32:24.161Z,12.58
2019-04-19T05:33:34.256Z,12.60
2019-04-19T05:34:36.501Z,12.53
2019-04-19T05:35:29.575Z,12.62
2019-04-19T05:36:39.165Z,12.62
2019-04-19T05:37:38.469Z,12.64
2019-04-19T05:38:43.167Z,12.62
2019-04-19T05:39:43.822Z,12.60
2019-04-19T05:40:37.693Z,12.75
2019-04-19T05:41:34.968Z,12.78
2019-04-19T05:42:37.137Z,12.80
2019-04-19T05:43:57.327Z,12.86
2019-04-19T05:44:42.456Z,12.82
2019-04-19T05:45:51.861Z,12.83
2019-04-19T05:46:42.484Z,12.90
2019-04-19T05:47:33.640Z,12.87
2019-04-19T05:48:31.591Z,12.95
2019-04-19T05:49:33.779Z,12.94
2019-04-19T05:50:45.817Z,12.95
2019-04-19T05:51:43.737Z,12.95
2019-04-19T05:52:39.875Z,12.94
2019-04-19T05:53:27.845Z,12.90
2019-04-19T05:54:20.920Z,12.98
2019-04-19T05:55:20.761Z,13.11
2019-04-19T05:56:20.045Z,13.03
2019-04-19T05:57:36.161Z,13.11
2019-04-19T05:58:31.433Z,13.15
2019-04-19T05:59:31.640Z,13.15
2019-04-19T06:00:36.515Z,13.03
2019-04-19T06:01:36.450Z,13.16
2019-04-19T06:02:29.404Z,13.09
2019-04-19T06:03:27.574Z,13.16
2019-04-19T06:04:38.969Z,13.15
2019-04-19T06:05:45.115Z,13.15
2019-04-19T06:06:42.795Z,13.28
2019-04-19T06:07:35.723Z,13.23
2019-04-19T06:08:26.585Z,13.25
2019-04-19T06:09:19.743Z,13.39
2019-04-19T06:10:19.735Z,13.41
2019-04-19T06:11:23.993Z,13.47
2019-04-19T06:12:25.099Z,13.47
2019-04-19T06:13:20.683Z,13.54
2019-04-19T06:14:45.077Z,13.56
2019-04-19T06:15:43.399Z,13.59
2019-04-19T06:16:36.834Z,13.65
2019-04-19T06:17:37.702Z,13.59
2019-04-19T06:18:32.011Z,13.68
2019-04-19T06:19:36.307Z,13.60
2019-04-19T06:20:35.065Z,13.63
2019-04-19T06:21:36.839Z,13.75
2019-04-19T06:22:40.662Z,13.79
2019-04-19T06:23:44.426Z,13.93
2019-04-19T06:24:40.921Z,13.90
2019-04-19T06:25:46.025Z,13.86
2019-04-19T06:26:53.422Z,13.92
2019-04-19T06:27:55.397Z,13.97
2019-04-19T06:28:48.574Z,14.05
2019-04-19T06:29:43.665Z,14.15
2019-04-19T06:30:42.246Z,14.14
2019-04-19T06:31:44.780Z,14.04
2019-04-19T06:32:46.573Z,14.12
2019-04-19T06:33:37.451Z,14.14
2019-04-19T06:34:38.900Z,14.22
2019-04-19T06:35:34.333Z,14.17
2019-04-19T06:36:20.955Z,14.33
2019-04-19T06:37:24.761Z,14.26
2019-04-19T06:38:20.455Z,14.32
2019-04-19T06:39:20.537Z,14.40
2019-04-19T06:40:26.538Z,14.40
2019-04-19T06:41:23.295Z,14.50
2019-04-19T06:42:31.862Z,14.51
2019-04-19T06:43:36.270Z,14.50
2019-04-19T06:44:43.441Z,14.59
2019-04-19T06:45:34.432Z,14.73
2019-04-19T06:46:36.076Z,14.72
2019-04-19T06:47:28.638Z,14.73
2019-04-19T06:48:26.643Z,14.69
2019-04-19T06:49:25.159Z,14.78
2019-04-19T06:50:24.416Z,14.79
2019-04-19T06:51:28.550Z,14.85
2019-04-19T06:52:25.933Z,14.86
2019-04-19T06:53:20.921Z,14.91
2019-04-19T06:54:29.568Z,14.86
2019-04-19T06:55:27.714Z,14.94
2019-04-19T06:56:28.357Z,14.92
2019-04-19T06:57:27.323Z,14.96
2019-04-19T06:58:24.839Z,15.04
2019-04-19T06:59:38.105Z,15.06
2019-04-19T07:00:38.326Z,15.17
2019-04-19T07:01:31.757Z,15.19
2019-04-19T07:02:21.934Z,15.24
2019-04-19T07:03:21.608Z,15.29
2019-04-19T07:04:21.163Z,15.40
2019-04-19T07:05:33.770Z,15.37
2019-04-19T07:06:37.308Z,15.36
2019-04-19T07:07:36.454Z,15.33
2019-04-19T07:09:44.766Z,15.58
2019-04-19T07:11:46.549Z,15.62
2019-04-19T07:12:40.291Z,15.62
2019-04-19T07:13:33.565Z,15.58
2019-04-19T07:14:24.981Z,15.52
2019-04-19T07:16:40.630Z,15.70
2019-04-19T07:17:37.589Z,15.73
2019-04-19T07:18:33.806Z,15.83
2019-04-19T07:19:41.089Z,15.95
2019-04-19T07:20:34.859Z,15.92
2019-04-19T07:21:40.828Z,16.05
2019-04-19T07:22:39.001Z,16.10
2019-04-19T07:23:38.588Z,16.10
2019-04-19T07:24:44.284Z,16.09
2019-04-19T07:25:54.418Z,16.08
2019-04-19T07:26:44.977Z,16.15
2019-04-19T07:27:34.482Z,16.26
2019-04-19T07:28:26.409Z,16.28
2019-04-19T07:29:21.315Z,16.36
2019-04-19T07:30:22.455Z,16.33
2019-04-19T07:31:21.711Z,16.41
2019-04-19T07:32:31.930Z,16.49
2019-04-19T07:33:31.657Z,16.56
2019-04-19T07:34:37.218Z,16.58
2019-04-19T07:35:43.648Z,16.66
2019-04-19T07:36:40.203Z,16.58
2019-04-19T07:37:36.313Z,16.60
2019-04-19T07:38:38.953Z,16.66
2019-04-19T07:39:48.156Z,16.61
2019-04-19T07:40:42.980Z,16.66
2019-04-19T07:41:38.355Z,16.65
2019-04-19T07:42:39.165Z,16.64
2019-04-19T07:43:34.857Z,16.60
2019-04-19T07:44:31.899Z,16.74
2019-04-19T07:45:30.951Z,16.79
2019-04-19T07:46:42.559Z,16.84
2019-04-19T07:47:35.801Z,16.94
2019-04-19T07:48:24.612Z,17.11
2019-04-19T07:49:23.232Z,17.12
2019-04-19T07:50:27.273Z,17.20
2019-04-19T07:51:28.690Z,17.27
2019-04-19T07:52:26.117Z,17.26
2019-04-19T07:53:31.279Z,17.38
2019-04-19T07:54:25.302Z,17.36
2019-04-19T07:55:22.692Z,17.38
2019-04-19T07:56:33.993Z,17.52
2019-04-19T07:58:44.183Z,17.56
2019-04-19T07:59:47.106Z,17.63
2019-04-19T08:01:53.620Z,17.71
2019-04-19T08:02:49.530Z,17.74
2019-04-19T08:04:06.698Z,17.83
2019-04-19T08:04:58.729Z,17.94
2019-04-19T08:05:59.345Z,18.07
2019-04-19T08:08:00.832Z,18.03
2019-04-19T08:09:51.533Z,18.03
2019-04-19T08:10:49.668Z,18.05
2019-04-19T08:11:58.868Z,17.97
2019-04-19T08:12:42.729Z,18.05
2019-04-19T08:13:58.155Z,18.00
2019-04-19T08:14:51.743Z,18.08
2019-04-19T08:15:58.257Z,17.97
2019-04-19T08:27:31.045Z,18.65
2019-04-19T08:28:32.518Z,18.50
2019-04-19T08:29:32.534Z,18.55
2019-04-19T08:30:33.924Z,18.55
2019-04-19T08:31:23.183Z,18.50
2019-04-19T08:32:23.513Z,18.50
2019-04-19T08:33:23.487Z,18.60
2019-04-19T08:34:24.790Z,18.62
2019-04-19T08:35:23.799Z,18.84
2019-04-19T08:36:28.609Z,18.81
2019-04-19T08:37:29.942Z,18.77
2019-04-19T08:38:25.619Z,18.77
2019-04-19T08:39:43.610Z,18.89
2019-04-19T08:40:44.078Z,18.86
2019-04-19T08:41:36.832Z,18.92
2019-04-19T08:42:46.063Z,18.95
2019-04-19T08:43:43.828Z,19.02
2019-04-19T08:44:38.611Z,19.09
2019-04-19T08:45:26.061Z,19.19
2019-04-19T08:46:23.959Z,19.16
2019-04-19T08:47:31.481Z,19.12
2019-04-19T08:48:33.784Z,19.29
2019-04-19T08:49:32.617Z,19.29
2019-04-19T08:50:22.969Z,19.34
2019-04-19T08:51:28.838Z,19.39
2019-04-19T08:52:27.301Z,19.41
2019-04-19T08:53:36.173Z,19.31
2019-04-19T08:54:43.564Z,19.37
2019-04-19T08:55:40.656Z,19.51
2019-04-19T08:56:34.688Z,19.56
2019-04-19T08:57:26.064Z,19.62
2019-04-19T08:58:37.724Z,19.71
2019-04-19T09:00:02.286Z,19.73
2019-04-19T09:00:52.196Z,19.59
2019-04-19T09:01:44.461Z,19.69
2019-04-19T09:02:39.332Z,19.76
2019-04-19T09:03:47.630Z,19.81
2019-04-19T09:04:39.723Z,19.86
2019-04-19T09:05:42.008Z,19.91
2019-04-19T09:07:22.925Z,19.96
2019-04-19T09:07:46.911Z,19.99
2019-04-19T09:08:41.179Z,19.95
2019-04-19T09:09:48.483Z,19.96
2019-04-19T09:10:41.899Z,20.00
2019-04-19T09:11:40.751Z,19.95
2019-04-19T09:12:47.116Z,20.02
2019-04-19T09:13:48.127Z,20.13
2019-04-19T09:14:45.955Z,20.10
2019-04-19T09:15:37.481Z,20.19
2019-04-19T09:16:43.436Z,20.28
2019-04-19T09:18:08.843Z,20.41
2019-04-19T09:18:51.718Z,20.39
2019-04-19T09:20:01.103Z,20.37
2019-04-19T09:20:41.202Z,20.40
2019-04-19T09:21:39.238Z,20.37
2019-04-19T09:22:39.485Z,20.40
2019-04-19T09:23:41.493Z,20.44
2019-04-19T09:24:37.483Z,20.50
2019-04-19T09:25:36.258Z,20.63
2019-04-19T09:26:42.516Z,20.66
2019-04-19T09:27:48.894Z,20.67
2019-04-19T09:28:46.089Z,20.77
2019-04-19T09:29:48.097Z,20.78
2019-04-19T09:30:43.755Z,20.81
2019-04-19T09:31:40.145Z,20.81
2019-04-19T09:32:29.235Z,20.85
2019-04-19T09:33:29.614Z,20.80
2019-04-19T09:34:26.656Z,20.77
2019-04-19T09:35:25.283Z,20.85
2019-04-19T09:36:30.472Z,20.97
2019-04-19T09:37:41.655Z,21.05
2019-04-19T09:38:39.724Z,21.09
2019-04-19T09:39:36.097Z,21.15
2019-04-19T09:40:31.192Z,21.11
2019-04-19T09:41:31.637Z,21.11
2019-04-19T09:42:37.349Z,21.17
2019-04-19T09:43:37.946Z,21.09
2019-04-19T09:44:30.739Z,21.22
2019-04-19T09:45:25.403Z,21.20
2019-04-19T09:46:25.362Z,21.25
2019-04-19T09:47:24.965Z,21.24
2019-04-19T09:48:43.616Z,21.20
2019-04-19T09:49:42.986Z,21.25
2019-04-19T09:50:41.740Z,21.40
2019-04-19T09:51:45.164Z,21.33
2019-04-19T09:52:47.081Z,21.36
2019-04-19T09:53:46.298Z,21.42
2019-04-19T09:54:46.006Z,21.52
2019-04-19T09:55:46.926Z,21.57
2019-04-19T09:56:43.383Z,21.55
2019-04-19T09:57:44.917Z,21.45
2019-04-19T09:58:40.520Z,21.43
2019-04-19T09:59:31.016Z,21.27
2019-04-19T10:00:28.162Z,21.12
2019-04-19T10:01:31.017Z,21.17
2019-04-19T10:02:31.905Z,21.40
2019-04-19T10:03:31.669Z,21.46
2019-04-19T10:04:25.142Z,21.43
2019-04-19T10:05:24.663Z,21.54
2019-04-19T10:06:24.750Z,21.58
2019-04-19T10:07:25.008Z,21.76
2019-04-19T10:08:24.730Z,21.83
2019-04-19T10:09:26.025Z,21.73
2019-04-19T10:10:24.975Z,21.52
2019-04-19T10:11:25.255Z,21.60
2019-04-19T10:12:25.231Z,21.42
2019-04-19T10:13:25.818Z,21.36
2019-04-19T10:14:25.598Z,21.54
2019-04-19T10:15:24.901Z,21.70
2019-04-19T10:16:26.296Z,21.88
2019-04-19T10:17:24.944Z,21.82
2019-04-19T10:18:24.966Z,21.82
2019-04-19T10:19:24.990Z,22.02
2019-04-19T10:20:25.014Z,22.04
2019-04-19T10:21:31.358Z,22.17
2019-04-19T10:22:25.300Z,22.15
2019-04-19T10:23:25.258Z,22.20
2019-04-19T10:24:27.329Z,22.22
2019-04-19T10:25:25.418Z,22.18
2019-04-19T10:26:26.333Z,22.11
2019-04-19T10:27:25.180Z,21.82
2019-04-19T10:28:26.585Z,21.77
2019-04-19T10:29:31.648Z,21.88
2019-04-19T10:30:26.510Z,21.85
2019-04-19T10:31:25.432Z,21.72
2019-04-19T10:32:26.470Z,21.60
2019-04-19T10:33:34.558Z,21.77
2019-04-19T10:34:25.346Z,21.91
2019-04-19T10:35:25.425Z,22.00
2019-04-19T10:36:26.448Z,22.15
2019-04-19T10:37:25.922Z,22.13
2019-04-19T10:38:25.549Z,22.30
2019-04-19T10:39:25.881Z,22.36
2019-04-19T10:40:25.829Z,22.43
2019-04-19T10:41:25.513Z,22.43
2019-04-19T10:42:25.543Z,22.38
2019-04-19T10:43:25.563Z,22.33
2019-04-19T10:44:27.084Z,22.30
2019-04-19T10:45:25.908Z,22.45
2019-04-19T10:46:26.857Z,22.35
2019-04-19T10:47:27.670Z,22.47
2019-04-19T10:48:25.681Z,22.41
2019-04-19T10:49:33.287Z,22.43
2019-04-19T10:50:35.372Z,22.29
2019-04-19T10:51:25.754Z,22.29
2019-04-19T10:52:25.945Z,22.10
2019-04-19T10:53:26.165Z,22.17
2019-04-19T10:54:26.544Z,22.43
2019-04-19T10:55:26.512Z,22.59
2019-04-19T10:56:25.983Z,22.60
2019-04-19T10:57:27.357Z,22.47
2019-04-19T10:58:25.921Z,22.63
2019-04-19T10:59:26.705Z,22.62
2019-04-19T11:00:27.110Z,22.75
2019-04-19T11:01:27.334Z,22.76
2019-04-19T11:02:26.806Z,22.69
2019-04-19T11:03:26.586Z,22.76
2019-04-19T11:04:26.893Z,22.76
2019-04-19T11:05:27.014Z,22.68
2019-04-19T11:06:27.185Z,22.72
2019-04-19T11:07:27.487Z,22.70
2019-04-19T11:08:26.544Z,22.72
2019-04-19T11:09:26.895Z,22.87
2019-04-19T11:10:27.393Z,22.87
2019-04-19T11:11:27.627Z,22.85
2019-04-19T11:12:26.282Z,22.66
2019-04-19T11:13:28.752Z,22.73
2019-04-19T11:14:26.309Z,22.76
2019-04-19T11:15:26.681Z,22.70
2019-04-19T11:16:26.357Z,22.70
2019-04-19T11:17:27.612Z,22.68
2019-04-19T11:18:27.663Z,22.51
2019-04-19T11:19:43.234Z,22.62
2019-04-19T11:20:37.130Z,22.72
2019-04-19T11:21:27.504Z,22.70
2019-04-19T11:22:27.757Z,22.84
2019-04-19T11:23:27.118Z,22.78
2019-04-19T11:24:27.770Z,22.68
2019-04-19T11:25:26.574Z,22.83
2019-04-19T11:26:27.250Z,22.85
2019-04-19T11:27:26.911Z,22.85
2019-04-19T11:28:27.110Z,22.70
2019-04-19T11:29:28.021Z,22.83
2019-04-19T11:30:26.697Z,22.88
2019-04-19T11:31:27.760Z,22.84
2019-04-19T11:32:28.097Z,22.83
2019-04-19T11:33:26.779Z,22.90
2019-04-19T11:34:27.190Z,22.88
2019-04-19T11:35:27.543Z,22.94
2019-04-19T11:36:26.842Z,22.90
2019-04-19T11:37:27.524Z,22.98
2019-04-19T11:38:27.200Z,23.02
2019-04-19T11:39:27.374Z,22.96
2019-04-19T11:40:27.200Z,22.84
2019-04-19T11:41:27.281Z,22.75
2019-04-19T11:42:27.583Z,22.69
2019-04-19T11:43:27.482Z,22.73
2019-04-19T11:44:29.313Z,22.81
2019-04-19T11:45:28.019Z,22.96
2019-04-19T11:46:27.715Z,22.94
2019-04-19T11:47:27.116Z,23.00
2019-04-19T11:48:27.141Z,22.91
2019-04-19T11:49:35.285Z,22.90
2019-04-19T11:50:27.536Z,22.78
2019-04-19T11:51:27.818Z,22.73
2019-04-19T11:52:27.997Z,22.80
2019-04-19T11:53:27.258Z,22.99
2019-04-19T11:54:28.323Z,23.05
2019-04-19T11:55:28.558Z,23.05
2019-04-19T11:56:36.088Z,23.03
2019-04-19T11:57:28.307Z,23.02
2019-04-19T11:58:31.187Z,23.00
2019-04-19T11:59:37.386Z,22.93
2019-04-19T12:00:27.493Z,22.88
2019-04-19T12:01:28.045Z,22.85
2019-04-19T12:02:28.953Z,22.83
2019-04-19T12:03:27.897Z,22.84
2019-04-19T12:04:28.195Z,22.84
2019-04-19T12:05:30.861Z,22.93
2019-04-19T12:06:27.576Z,22.98
2019-04-19T12:07:28.365Z,23.03
2019-04-19T12:08:28.843Z,23.10
2019-04-19T12:09:27.650Z,23.18
2019-04-19T12:10:30.424Z,23.27
2019-04-19T12:11:28.401Z,23.25
2019-04-19T12:12:27.726Z,23.32
2019-04-19T12:13:29.090Z,23.32
2019-04-19T12:14:29.502Z,23.28
2019-04-19T12:15:29.275Z,23.20
2019-04-19T12:16:28.747Z,23.23
2019-04-19T12:17:29.158Z,23.13
2019-04-19T12:18:28.487Z,23.05
2019-04-19T12:19:37.035Z,22.96
2019-04-19T12:20:28.978Z,23.05
2019-04-19T12:21:29.264Z,23.12
2019-04-19T12:22:27.967Z,23.27
2019-04-19T12:23:27.994Z,23.34
2019-04-19T12:24:28.801Z,23.25
2019-04-19T12:25:29.817Z,23.21
2019-04-19T12:26:29.466Z,23.23
2019-04-19T12:27:28.093Z,23.20
2019-04-19T12:28:28.118Z,23.13
2019-04-19T12:29:35.358Z,23.09
2019-04-19T12:30:29.463Z,23.21
2019-04-19T12:31:29.491Z,23.21
2019-04-19T12:32:29.465Z,23.27
2019-04-19T12:33:29.207Z,23.23
2019-04-19T12:34:28.789Z,23.24
2019-04-19T12:35:29.626Z,23.28
2019-04-19T12:36:28.923Z,23.23
2019-04-19T12:37:29.040Z,23.21
2019-04-19T12:38:28.396Z,23.12
2019-04-19T12:39:28.389Z,23.17
2019-04-19T12:40:29.636Z,23.18
2019-04-19T12:41:28.439Z,23.28
2019-04-19T12:42:28.464Z,23.31
2019-04-19T12:43:29.800Z,23.39
2019-04-19T12:44:29.101Z,23.43
2019-04-19T12:45:28.536Z,23.41
2019-04-19T12:46:28.654Z,23.55
2019-04-19T12:47:28.987Z,23.50
2019-04-19T12:48:29.771Z,23.43
2019-04-19T12:49:28.634Z,23.39
2019-04-19T12:50:29.520Z,23.48
2019-04-19T12:51:30.025Z,23.40
2019-04-19T12:52:28.715Z,23.40
2019-04-19T12:53:28.744Z,23.27
2019-04-19T12:54:29.844Z,23.28
2019-04-19T12:55:30.208Z,23.21
2019-04-19T12:56:29.629Z,23.12
2019-04-19T12:57:29.936Z,23.13
2019-04-19T12:58:30.147Z,23.27
2019-04-19T12:59:29.527Z,23.47
2019-04-19T13:00:29.905Z,23.54
2019-04-19T13:01:30.101Z,23.44
2019-04-19T13:02:29.572Z,23.40
2019-04-19T13:03:29.807Z,23.46
2019-04-19T13:04:29.006Z,23.39
2019-04-19T13:05:29.038Z,23.43
2019-04-19T13:06:29.654Z,23.48
2019-04-19T13:07:29.081Z,23.39
2019-04-19T13:08:29.345Z,23.39
2019-04-19T13:09:29.128Z,23.41
2019-04-19T13:10:29.218Z,23.47
2019-04-19T13:11:29.391Z,23.50
2019-04-19T13:12:29.204Z,23.46
2019-04-19T13:13:29.796Z,23.55
2019-04-19T13:14:29.900Z,23.55
2019-04-19T13:15:29.519Z,23.61
2019-04-19T13:16:30.417Z,23.66
2019-04-19T13:17:30.489Z,23.73
2019-04-19T13:18:30.113Z,23.62